Time;durP1;ratioP1;P1;durP2;ratioP2;P2;SDS_P1;SDS_P2;PMS_P1;PMS_P2;Temp;Humidity;BMP_temperature;BMP_pressure;BME280_temperature;BME280_humidity;BME280_pressure;Samples;Min_cycle;Max_cycle;Signal;HPM_P1;HPM_P2
2023/08/16 00:02:17;;;;;;;6.63;3.10;;;;;;;19.05;100.00;98866.28;5040943;28;20237;-59
2023/08/16 00:04:50;;;;;;;4.77;2.90;;;;;;;19.00;100.00;98858.94;5044305;28;20220;-59
2023/08/16 00:07:18;;;;;;;5.93;2.97;;;;;;;18.97;100.00;98861.16;5041775;28;20267;-59
2023/08/16 00:09:51;;;;;;;4.60;2.90;;;;;;;18.96;100.00;98852.44;5046810;28;20228;-59
2023/08/16 00:12:18;;;;;;;5.97;3.30;;;;;;;18.91;100.00;98848.69;5042453;28;20236;-59
2023/08/16 00:14:50;;;;;;;5.13;3.07;;;;;;;18.90;100.00;98853.19;5044673;28;20761;-59
2023/08/16 00:17:17;;;;;;;4.90;2.90;;;;;;;18.95;100.00;98842.81;5047164;28;20228;-59
2023/08/16 00:20:10;;;;;;;6.63;3.83;;;;;;;18.89;100.00;98831.19;5047287;28;20259;-58
2023/08/16 00:22:38;;;;;;;6.73;3.97;;;;;;;18.88;100.00;98829.56;5050453;28;20287;-58
2023/08/16 00:25:05;;;;;;;8.23;3.27;;;;;;;18.85;100.00;98837.91;5046897;28;20226;-58
2023/08/16 00:27:32;;;;;;;7.57;3.50;;;;;;;18.85;100.00;98837.91;5053791;28;20233;-60
2023/08/16 00:29:59;;;;;;;8.23;3.60;;;;;;;18.85;100.00;98832.63;5067015;28;20753;-58
2023/08/16 00:32:25;;;;;;;7.80;3.80;;;;;;;18.85;100.00;98832.63;5069136;28;20238;-58
2023/08/16 00:34:52;;;;;;;10.07;3.97;;;;;;;18.91;100.00;98823.09;5050452;28;20228;-57
2023/08/16 00:37:18;;;;;;;7.07;4.07;;;;;;;18.90;100.00;98824.09;5049332;28;20235;-57
2023/08/16 00:39:51;;;;;;;9.33;3.77;;;;;;;18.90;100.00;98824.09;5062084;28;20224;-57
2023/08/16 00:42:18;;;;;;;5.70;3.90;;;;;;;18.91;100.00;98817.78;5047839;28;20241;-58
2023/08/16 00:44:50;;;;;;;10.10;4.20;;;;;;;18.99;100.00;98822.94;5049323;28;20230;-58
2023/08/16 00:47:17;;;;;;;9.60;4.30;;;;;;;19.12;100.00;98814.19;5063801;28;20239;-58
2023/08/16 00:49:47;;;;;;;14.90;3.93;;;;;;;19.22;100.00;98805.84;5067093;28;20717;-58
2023/08/16 00:52:14;;;;;;;7.43;3.70;;;;;;;19.23;100.00;98804.00;5046843;28;20247;-59
2023/08/16 00:54:40;;;;;;;8.67;3.97;;;;;;;19.32;100.00;98810.75;5054326;28;20219;-58
2023/08/16 00:57:09;;;;;;;6.00;3.80;;;;;;;19.43;100.00;98807.47;5069364;28;20247;-58
2023/08/16 00:59:37;;;;;;;7.63;4.00;;;;;;;19.47;100.00;98803.41;5050924;28;20219;-58
2023/08/16 01:02:03;;;;;;;6.40;3.87;;;;;;;19.52;100.00;98801.97;5050264;28;20709;-57
2023/08/16 01:04:31;;;;;;;6.50;3.57;;;;;;;19.58;100.00;98801.97;5054687;28;20248;-58
2023/08/16 01:06:58;;;;;;;5.13;4.23;;;;;;;19.66;100.00;98802.78;5058963;28;20240;-60
2023/08/16 01:09:25;;;;;;;6.43;3.93;;;;;;;19.80;100.00;98806.22;5055688;28;20234;-59
2023/08/16 01:12:00;;;;;;;6.97;3.70;;;;;;;19.86;100.00;98797.44;5067408;28;20229;-59
2023/08/16 01:14:37;;;;;;;7.30;3.93;;;;;;;19.89;100.00;98795.22;5041021;28;20235;-59
2023/08/16 01:17:06;;;;;;;5.00;3.80;;;;;;;19.86;100.00;98792.13;5043303;28;20240;-57
2023/08/16 01:19:34;;;;;;;6.33;3.63;;;;;;;19.78;100.00;98793.19;5050953;28;20221;-60
2023/08/16 01:22:10;;;;;;;6.50;3.80;;;;;;;19.73;100.00;98785.84;5063671;28;20233;-59
2023/08/16 01:25:03;;;;;;;7.13;3.80;;;;;;;19.68;100.00;98787.50;5050060;28;20331;-59
2023/08/16 01:27:32;;;;;;;5.27;3.40;;;;;;;19.65;100.00;98785.25;5049692;28;20701;-59
2023/08/16 01:29:59;;;;;;;5.47;3.70;;;;;;;19.64;100.00;98795.03;5045436;28;20573;-58
2023/08/16 01:32:28;;;;;;;7.30;3.80;;;;;;;19.61;100.00;98798.91;5068609;28;20243;-59
2023/08/16 01:34:55;;;;;;;4.50;3.60;;;;;;;19.61;100.00;98801.56;5048720;28;20220;-60
2023/08/16 01:37:21;;;;;;;5.63;3.20;;;;;;;19.62;100.00;98803.19;5052406;28;20240;-59
2023/08/16 01:39:51;;;;;;;5.20;3.70;;;;;;;19.64;100.00;98810.09;5041713;28;20226;-59
2023/08/16 01:42:18;;;;;;;4.30;3.40;;;;;;;19.66;100.00;98822.09;5064509;28;20242;-59
2023/08/16 01:44:52;;;;;;;7.53;3.57;;;;;;;19.70;100.00;98831.28;5067684;28;20313;-59
2023/08/16 01:47:19;;;;;;;4.87;3.10;;;;;;;19.71;100.00;98835.56;5048773;28;20236;-59
2023/08/16 01:49:50;;;;;;;4.00;3.20;;;;;;;19.72;100.00;98834.53;5048297;28;20589;-59
2023/08/16 01:52:17;;;;;;;8.40;3.90;;;;;;;19.75;100.00;98835.97;5048506;28;20242;-59
2023/08/16 01:54:47;;;;;;;6.87;3.57;;;;;;;19.74;100.00;98829.84;5051592;28;20227;-59
2023/08/16 01:57:14;;;;;;;5.97;3.57;;;;;;;19.66;100.00;98824.75;5046316;28;20238;-59
2023/08/16 01:59:41;;;;;;;4.23;3.30;;;;;;;19.70;100.00;98817.22;5050774;28;20241;-58
2023/08/16 02:02:09;;;;;;;9.47;3.90;;;;;;;19.70;100.00;98817.22;5064129;28;20237;-59
2023/08/16 02:04:37;;;;;;;5.87;3.73;;;;;;;19.67;100.00;98817.66;5054972;28;20228;-59
2023/08/16 02:07:03;;;;;;;7.60;3.57;;;;;;;19.64;100.00;98804.81;5065147;28;20600;-59
2023/08/16 02:09:31;;;;;;;8.73;3.47;;;;;;;19.60;100.00;98807.88;5048971;28;20256;-59
2023/08/16 02:11:57;;;;;;;10.53;3.80;;;;;;;19.49;100.00;98812.97;5063761;28;20226;-59
2023/08/16 02:14:24;;;;;;;5.53;3.40;;;;;;;19.43;100.00;98812.78;5066680;28;20237;-60
2023/08/16 02:16:51;;;;;;;5.97;3.80;;;;;;;19.30;100.00;98818.06;5065492;28;20225;-58
2023/08/16 02:19:19;;;;;;;3.97;3.47;;;;;;;19.20;100.00;98825.59;5045121;28;20233;-58
2023/08/16 02:21:46;;;;;;;3.60;3.13;;;;;;;19.18;100.00;98845.13;5059421;28;20672;-58
2023/08/16 02:24:13;;;;;;;8.27;4.13;;;;;;;19.08;100.00;98857.94;5064400;28;20236;-58
2023/08/16 02:26:39;;;;;;;6.93;3.50;;;;;;;19.10;100.00;98894.75;5049800;28;20228;-58
2023/08/16 02:29:08;;;;;;;4.83;3.40;;;;;;;19.09;100.00;98925.69;5046626;28;20803;-58
2023/08/16 02:31:35;;;;;;;11.00;4.37;;;;;;;19.09;100.00;98960.09;5051716;28;20240;-57
2023/08/16 02:34:01;;;;;;;5.87;5.03;;;;;;;19.08;100.00;98984.91;5063616;28;20230;-58
2023/08/16 02:36:30;;;;;;;8.90;6.37;;;;;;;19.06;100.00;98975.56;5042306;28;20235;-58
2023/08/16 02:38:56;;;;;;;7.63;6.67;;;;;;;19.03;100.00;98990.81;5039875;28;20234;-58
2023/08/16 02:41:24;;;;;;;9.00;6.83;;;;;;;19.03;100.00;99012.00;5049893;28;20325;-58
2023/08/16 02:43:50;;;;;;;10.27;6.53;;;;;;;19.07;100.00;99011.59;5050887;28;20593;-58
2023/08/16 02:46:17;;;;;;;9.73;6.47;;;;;;;19.07;100.00;99015.03;5045989;28;20241;-58
2023/08/16 02:48:43;;;;;;;13.47;6.73;;;;;;;19.11;100.00;99015.44;5051608;28;20710;-61
2023/08/16 02:51:10;;;;;;;10.33;6.90;;;;;;;19.12;100.00;99009.97;5065912;28;20239;-58
2023/08/16 02:53:38;;;;;;;6.87;6.00;;;;;;;19.15;100.00;99012.22;5049173;28;20591;-57
2023/08/16 02:56:04;;;;;;;10.23;6.90;;;;;;;19.16;100.00;99013.03;5041574;28;20230;-58
2023/08/16 02:58:31;;;;;;;10.20;6.20;;;;;;;19.20;100.00;99000.22;5053250;28;20220;-58
2023/08/16 03:00:58;;;;;;;8.07;6.37;;;;;;;19.17;100.00;99004.91;5063262;28;20626;-57
2023/08/16 03:03:24;;;;;;;14.73;7.90;;;;;;;19.17;100.00;98996.97;5057763;28;20611;-57
2023/08/16 03:05:51;;;;;;;11.00;7.43;;;;;;;19.20;100.00;98989.66;5071095;28;20217;-58
2023/08/16 03:08:17;;;;;;;10.07;8.73;;;;;;;19.14;100.00;98983.31;5070429;28;20239;-58
2023/08/16 03:10:45;;;;;;;9.77;7.27;;;;;;;19.13;100.00;98982.50;5046957;28;20233;-59
2023/08/16 03:13:12;;;;;;;13.03;7.90;;;;;;;19.12;100.00;98974.75;5044059;28;20235;-58
2023/08/16 03:15:39;;;;;;;12.00;9.03;;;;;;;19.14;100.00;98972.72;5069125;28;20231;-59
2023/08/16 03:18:06;;;;;;;11.03;8.87;;;;;;;19.15;100.00;98961.94;5066076;28;20231;-59
2023/08/16 03:20:32;;;;;;;11.87;9.80;;;;;;;19.22;100.00;98958.50;5057464;28;20312;-59
2023/08/16 03:22:59;;;;;;;11.00;9.90;;;;;;;19.25;100.00;98943.03;5068220;28;20233;-58
2023/08/16 03:25:26;;;;;;;14.70;10.30;;;;;;;19.23;100.00;98923.09;5071733;28;20633;-57
2023/08/16 03:27:55;;;;;;;10.17;8.53;;;;;;;19.27;100.00;98926.97;5048055;28;20260;-59
2023/08/16 03:33:05;;;;;;;5.83;5.23;;;;;;;19.44;100.00;98895.63;4981474;23;20223;-59
2023/08/16 03:35:33;;;;;;;6.30;4.63;;;;;;;19.59;100.00;98877.72;4965619;28;20239;-58
2023/08/16 03:38:00;;;;;;;6.67;5.57;;;;;;;19.61;100.00;98864.28;4972275;28;20595;-58
2023/08/16 03:40:26;;;;;;;7.13;5.40;;;;;;;19.56;100.00;98846.38;4975191;28;20323;-57
2023/08/16 03:42:54;;;;;;;7.83;5.77;;;;;;;19.50;100.00;98836.59;4976034;28;20227;-59
2023/08/16 03:45:24;;;;;;;8.70;5.40;;;;;;;19.51;100.00;98819.69;4975936;28;20238;-58
2023/08/16 03:47:53;;;;;;;8.87;5.80;;;;;;;19.50;100.00;98802.19;4984759;28;20224;-59
2023/08/16 03:50:20;;;;;;;5.10;4.50;;;;;;;19.44;100.00;98795.88;4972705;28;20233;-58
2023/08/16 03:52:47;;;;;;;6.10;4.37;;;;;;;19.45;100.00;98786.09;4974749;28;20324;-59
2023/08/16 03:55:13;;;;;;;6.87;4.17;;;;;;;19.39;100.00;98785.09;4981397;28;29592;-56
2023/08/16 03:57:40;;;;;;;6.53;3.87;;;;;;;19.39;100.00;98787.72;4984616;28;20786;-58
2023/08/16 04:00:13;;;;;;;5.37;4.10;;;;;;;19.38;100.00;98767.56;4972287;28;20229;-59
2023/08/16 04:02:40;;;;;;;6.83;4.10;;;;;;;19.30;100.00;98755.34;4978115;28;20673;-59
2023/08/16 04:05:10;;;;;;;7.37;3.77;;;;;;;19.27;100.00;98744.38;4972839;28;20231;-58
2023/08/16 04:07:36;;;;;;;5.93;3.47;;;;;;;19.29;100.00;98745.78;4984569;28;20227;-58
2023/08/16 04:10:03;;;;;;;5.63;3.90;;;;;;;19.29;100.00;98748.44;4981237;28;20261;-57
2023/08/16 04:12:30;;;;;;;6.40;3.80;;;;;;;19.29;100.00;98747.63;4977618;28;20235;-58
2023/08/16 04:14:57;;;;;;;6.63;3.60;;;;;;;19.26;100.00;98732.97;4975842;28;20301;-59
2023/08/16 04:17:25;;;;;;;9.50;3.60;;;;;;;19.27;100.00;98733.78;4984629;28;20231;-58
2023/08/16 04:19:52;;;;;;;6.40;3.90;;;;;;;19.29;100.00;98742.34;4983321;28;20232;-59
2023/08/16 04:22:18;;;;;;;6.10;4.10;;;;;;;19.39;100.00;98744.56;4974969;28;20757;-59
2023/08/16 04:24:50;;;;;;;6.80;3.80;;;;;;;19.48;100.00;98748.63;4999603;28;20231;-58
2023/08/16 04:27:17;;;;;;;4.37;3.70;;;;;;;19.60;100.00;98751.47;4973902;28;20239;-59
2023/08/16 04:29:47;;;;;;;5.90;3.60;;;;;;;19.77;100.00;98746.53;4982978;28;20223;-58
2023/08/16 04:32:14;;;;;;;5.23;3.70;;;;;;;19.88;100.00;98745.06;4981684;28;20296;-58
2023/08/16 04:34:42;;;;;;;6.93;3.73;;;;;;;19.91;100.00;98749.97;4977472;28;20278;-57
2023/08/16 04:37:11;;;;;;;5.70;3.57;;;;;;;19.83;100.00;98751.00;4981379;28;20239;-58
2023/08/16 04:39:39;;;;;;;6.87;4.33;;;;;;;19.79;100.00;98755.09;4975753;28;20228;-59
2023/08/16 04:42:05;;;;;;;6.83;3.60;;;;;;;19.79;100.00;98751.59;4972150;28;20742;-59
2023/08/16 04:44:32;;;;;;;6.03;3.50;;;;;;;19.78;100.00;98753.47;4984418;28;20224;-58
2023/08/16 04:46:59;;;;;;;6.30;3.83;;;;;;;19.81;100.00;98757.50;4975009;28;20231;-58
2023/08/16 04:49:26;;;;;;;5.73;3.73;;;;;;;19.82;100.00;98765.25;4975171;28;20222;-56
2023/08/16 04:51:54;;;;;;;6.87;4.57;;;;;;;19.83;100.00;98782.78;4983210;28;20256;-58
2023/08/16 04:54:21;;;;;;;4.80;3.17;;;;;;;19.83;100.00;98792.56;4999173;28;20225;-58
2023/08/16 04:56:48;;;;;;;6.23;3.40;;;;;;;19.82;100.00;98802.34;4977055;28;20231;-58
2023/08/16 04:59:15;;;;;;;7.47;3.50;;;;;;;19.84;100.00;98808.25;4971955;28;20562;-58
2023/08/16 05:01:42;;;;;;;8.30;3.73;;;;;;;19.81;100.00;98826.38;4975965;28;20230;-57
2023/08/16 05:04:09;;;;;;;4.57;3.93;;;;;;;19.96;100.00;98831.50;4973164;28;20263;-57
2023/08/16 05:06:37;;;;;;;5.63;4.07;;;;;;;19.98;100.00;98832.09;4982691;28;20927;-58
2023/08/16 05:09:06;;;;;;;7.13;4.00;;;;;;;19.93;100.00;98835.34;4974665;28;20243;-57
2023/08/16 05:11:33;;;;;;;7.03;4.50;;;;;;;19.87;100.00;98831.69;4975084;28;20334;-60
2023/08/16 05:14:01;;;;;;;4.77;4.27;;;;;;;19.91;100.00;98838.22;4974609;28;20243;-58
2023/08/16 05:16:27;;;;;;;5.37;3.73;;;;;;;19.90;100.00;98844.53;4984083;28;20691;-58
2023/08/16 05:18:57;;;;;;;5.37;4.37;;;;;;;19.94;100.00;98836.97;4974758;28;20729;-58
2023/08/16 05:21:24;;;;;;;6.60;4.30;;;;;;;19.97;100.00;98844.53;4982301;28;20235;-58
2023/08/16 05:23:51;;;;;;;6.20;4.37;;;;;;;20.02;100.00;98843.91;4979397;28;20236;-58
2023/08/16 05:26:19;;;;;;;11.60;5.07;;;;;;;20.09;100.00;98846.53;4976068;28;20230;-58
2023/08/16 05:28:45;;;;;;;5.50;4.17;;;;;;;20.08;100.00;98851.03;4978857;28;20220;-58
2023/08/16 05:31:13;;;;;;;7.67;4.60;;;;;;;20.11;100.00;98863.03;4975820;28;20250;-58
2023/08/16 05:33:40;;;;;;;5.90;4.33;;;;;;;20.06;100.00;98861.03;4979087;28;20221;-58
2023/08/16 05:36:07;;;;;;;8.40;4.50;;;;;;;19.98;100.00;98863.91;4974677;28;20232;-59
2023/08/16 05:38:34;;;;;;;5.33;4.37;;;;;;;19.99;100.00;98863.66;4977767;28;20215;-58
2023/08/16 05:41:03;;;;;;;4.57;3.80;;;;;;;20.05;100.00;98877.94;4975836;28;20237;-59
2023/08/16 05:43:31;;;;;;;7.43;4.33;;;;;;;20.08;100.00;98882.84;4976036;28;20234;-57
2023/08/16 05:45:58;;;;;;;6.07;3.87;;;;;;;20.07;100.00;98891.81;4975086;28;20228;-58
2023/08/16 05:48:24;;;;;;;6.23;4.00;;;;;;;20.13;100.00;98895.44;4977138;28;20222;-57
2023/08/16 05:50:51;;;;;;;6.27;4.00;;;;;;;20.22;100.00;98896.84;4977671;28;20679;-59
2023/08/16 05:53:17;;;;;;;4.10;3.50;;;;;;;20.28;100.00;98898.69;4970637;28;20241;-58
2023/08/16 05:55:44;;;;;;;5.17;4.10;;;;;;;20.37;100.00;98901.91;4974322;28;20236;-55
2023/08/16 05:58:10;;;;;;;6.50;4.30;;;;;;;20.40;100.00;98901.50;4974214;28;20229;-58
2023/08/16 06:00:38;;;;;;;9.23;4.30;;;;;;;20.44;100.00;98901.91;4978389;28;20220;-58
2023/08/16 06:03:06;;;;;;;7.67;4.37;;;;;;;20.46;100.00;98903.31;4973961;28;20233;-58
2023/08/16 06:05:32;;;;;;;7.13;4.60;;;;;;;20.39;100.00;98899.88;4980917;28;20295;-58
2023/08/16 06:07:59;;;;;;;6.17;4.53;;;;;;;20.39;100.00;98904.38;4971882;28;20595;-58
2023/08/16 06:10:26;;;;;;;9.30;4.60;;;;;;;20.43;100.00;98898.44;4975859;28;20236;-57
2023/08/16 06:12:52;;;;;;;5.93;5.33;;;;;;;20.51;100.00;98905.34;4983279;28;20315;-56
2023/08/16 06:15:19;;;;;;;7.00;4.37;;;;;;;20.60;100.00;98903.28;4974143;28;20249;-58
2023/08/16 06:17:47;;;;;;;5.43;4.13;;;;;;;20.73;100.00;98899.75;4977582;28;20221;-59
2023/08/16 06:20:14;;;;;;;13.27;5.87;;;;;;;20.79;100.00;98896.28;4974411;28;20246;-56
2023/08/16 06:22:40;;;;;;;7.67;4.70;;;;;;;20.85;100.00;98903.41;4974247;28;20313;-58
2023/08/16 06:25:09;;;;;;;5.67;4.43;;;;;;;20.94;100.00;98901.34;4972863;28;20231;-57
2023/08/16 06:27:35;;;;;;;6.50;4.60;;;;;;;21.03;100.00;98899.25;4976056;28;20226;-58
2023/08/16 06:30:02;;;;;;;5.23;4.03;;;;;;;21.13;100.00;98904.91;4974008;28;20748;-59
2023/08/16 06:32:29;;;;;;;5.03;4.50;;;;;;;21.14;100.00;98903.06;4975715;28;20258;-58
2023/08/16 06:34:57;;;;;;;6.23;4.97;;;;;;;21.21;100.00;98906.47;4974895;28;20584;-59
2023/08/16 06:37:24;;;;;;;8.77;5.30;;;;;;;21.18;100.00;98906.94;4972757;28;20238;-59
2023/08/16 06:39:50;;;;;;;5.33;4.30;;;;;;;21.14;100.00;98919.81;4975351;28;20223;-59
2023/08/16 06:42:17;;;;;;;6.90;5.67;;;;;;;21.13;100.00;98918.16;4975380;28;21053;-58
2023/08/16 06:44:47;;;;;;;7.77;5.40;;;;;;;21.24;100.00;98906.06;4977416;28;20225;-58
2023/08/16 06:47:14;;;;;;;10.27;5.53;;;;;;;21.07;100.00;98898.63;4973914;28;20237;-58
2023/08/16 06:49:40;;;;;;;7.57;5.70;;;;;;;21.12;100.00;98899.81;4976173;28;20226;-57
2023/08/16 06:52:08;;;;;;;6.47;5.37;;;;;;;21.18;100.00;98899.78;4977045;28;20754;-59
2023/08/16 06:54:35;;;;;;;8.87;5.50;;;;;;;21.20;100.00;98899.56;4976570;28;20319;-58
2023/08/16 06:57:01;;;;;;;5.37;4.83;;;;;;;21.29;100.00;98903.56;4973960;28;20759;-57
2023/08/16 06:59:28;;;;;;;8.80;4.90;;;;;;;21.45;100.00;98910.22;4975850;28;20234;-57
2023/08/16 07:01:55;;;;;;;7.70;5.17;;;;;;;21.48;100.00;98906.31;4972583;28;20692;-58
2023/08/16 07:04:21;;;;;;;8.03;5.10;;;;;;;21.59;100.00;98905.63;4973489;28;20231;-60
2023/08/16 07:06:48;;;;;;;7.27;5.53;;;;;;;21.68;100.00;98895.59;4976612;28;20217;-59
2023/08/16 07:09:16;;;;;;;4.97;4.47;;;;;;;21.68;100.00;98898.25;4973035;28;20308;-59
2023/08/16 07:11:43;;;;;;;7.13;4.43;;;;;;;21.75;100.00;98901.63;4977314;28;20222;-60
2023/08/16 07:14:09;;;;;;;6.07;4.70;;;;;;;21.69;100.00;98899.88;4973040;28;20236;-59
2023/08/16 07:16:38;;;;;;;6.43;4.80;;;;;;;21.66;100.00;98900.31;4974828;28;20881;-59
2023/08/16 07:19:08;;;;;;;8.50;5.10;;;;;;;21.72;100.00;98909.22;4973989;28;20229;-56
2023/08/16 07:21:35;;;;;;;6.13;5.03;;;;;;;21.72;100.00;98904.75;4975004;28;20297;-59
2023/08/16 07:24:01;;;;;;;7.50;4.90;;;;;;;21.74;100.00;98910.63;4973528;28;20719;-59
2023/08/16 07:26:29;;;;;;;6.27;5.07;;;;;;;21.74;100.00;98905.31;4976466;28;20241;-59
2023/08/16 07:28:56;;;;;;;6.77;5.17;;;;;;;21.76;100.00;98911.22;4969627;28;20234;-59
2023/08/16 07:31:23;;;;;;;7.37;5.03;;;;;;;21.91;100.00;98913.56;4979088;28;20231;-59
2023/08/16 07:33:49;;;;;;;10.53;5.90;;;;;;;22.07;100.00;98922.03;4978057;28;20229;-59
2023/08/16 07:36:18;;;;;;;13.37;5.27;;;;;;;21.95;100.00;98917.41;4973610;28;20238;-58
2023/08/16 07:38:47;;;;;;;6.87;5.30;;;;;;;21.96;100.00;98912.91;4976416;28;20231;-59
2023/08/16 07:41:15;;;;;;;8.47;5.93;;;;;;;21.85;100.00;98909.13;4974765;28;20248;-62
2023/08/16 07:43:42;;;;;;;9.37;5.77;;;;;;;22.01;100.00;98906.94;4976651;28;20952;-59
2023/08/16 07:46:09;;;;;;;6.40;5.20;;;;;;;22.24;100.00;98903.66;4972000;28;20237;-59
2023/08/16 07:48:35;;;;;;;6.67;5.97;;;;;;;22.31;100.00;98903.56;4979437;28;20230;-59
2023/08/16 07:51:01;;;;;;;7.80;5.80;;;;;;;22.45;100.00;98909.59;4978653;28;20231;-59
2023/08/16 07:53:28;;;;;;;8.43;5.47;;;;;;;22.39;100.00;98909.41;4978505;28;20238;-59
2023/08/16 07:55:54;;;;;;;6.33;4.60;;;;;;;22.44;100.00;98915.91;4976717;28;20250;-59
2023/08/16 07:58:21;;;;;;;6.37;4.83;;;;;;;22.51;100.00;98922.00;4979922;28;20240;-59
2023/08/16 08:00:53;;;;;;;5.47;4.77;;;;;;;22.65;100.00;98925.31;4980598;28;20219;-59
2023/08/16 08:03:21;;;;;;;5.37;4.63;;;;;;;22.77;100.00;98923.53;4976340;28;20235;-60
2023/08/16 08:05:47;;;;;;;7.43;4.83;;;;;;;22.83;99.93;98925.31;4979906;28;20306;-60
2023/08/16 08:08:14;;;;;;;7.33;4.90;;;;;;;22.83;100.00;98922.66;4979381;28;20352;-60
2023/08/16 08:10:43;;;;;;;6.53;5.00;;;;;;;22.91;100.00;98924.19;4979010;28;20306;-60
2023/08/16 08:13:10;;;;;;;13.50;6.10;;;;;;;23.01;98.01;98926.31;4975669;28;20242;-60
2023/08/16 08:15:37;;;;;;;9.30;5.43;;;;;;;22.96;97.89;98928.84;4979518;28;20214;-60
2023/08/16 08:18:05;;;;;;;9.30;5.93;;;;;;;22.90;98.71;98932.41;4972402;28;20233;-59
2023/08/16 08:20:32;;;;;;;6.93;5.33;;;;;;;22.92;99.03;98933.00;4979464;28;20238;-59
2023/08/16 08:22:58;;;;;;;7.37;5.40;;;;;;;23.07;99.04;98936.06;4974261;28;20246;-59
2023/08/16 08:25:25;;;;;;;7.47;5.30;;;;;;;23.30;98.25;98934.56;4980896;28;20912;-60
2023/08/16 08:27:52;;;;;;;6.77;4.40;;;;;;;23.50;96.37;98926.28;4979098;28;20337;-59
2023/08/16 08:30:19;;;;;;;6.97;5.20;;;;;;;23.43;93.85;98929.03;4977572;28;20236;-59
2023/08/16 08:32:45;;;;;;;8.73;4.90;;;;;;;23.31;96.00;98925.53;4976568;28;20320;-60
2023/08/16 08:35:13;;;;;;;5.10;4.00;;;;;;;23.59;95.67;98934.75;4977069;28;20234;-60
2023/08/16 08:37:40;;;;;;;7.60;4.63;;;;;;;23.80;92.21;98936.06;4978938;28;20227;-59
2023/08/16 08:40:07;;;;;;;5.67;4.43;;;;;;;23.79;93.80;98934.44;4974474;28;20225;-60
2023/08/16 08:42:35;;;;;;;8.43;4.97;;;;;;;23.79;92.98;98921.13;4981359;28;20331;-59
2023/08/16 08:45:03;;;;;;;7.67;4.70;;;;;;;23.87;91.93;98926.06;4979037;28;20249;-61
2023/08/16 08:47:31;;;;;;;8.70;4.90;;;;;;;23.87;90.91;98925.28;4974943;28;20712;-60
2023/08/16 08:49:59;;;;;;;10.07;4.80;;;;;;;23.76;91.98;98931.41;4975240;28;20227;-60
2023/08/16 08:52:28;;;;;;;6.97;4.57;;;;;;;23.85;92.73;98930.81;4978681;28;20318;-60
2023/08/16 08:54:54;;;;;;;11.77;5.33;;;;;;;23.67;93.24;98936.28;4975255;28;20288;-60
2023/08/16 08:57:23;;;;;;;8.20;4.83;;;;;;;24.01;91.74;98940.03;4978314;28;20231;-59
2023/08/16 08:59:53;;;;;;;8.70;4.40;;;;;;;24.07;90.76;98945.50;4979729;28;20294;-60
2023/08/16 09:02:20;;;;;;;10.57;5.40;;;;;;;24.03;90.14;98943.28;4976190;28;20615;-57
2023/08/16 09:04:52;;;;;;;8.20;5.07;;;;;;;24.23;88.67;98942.13;4978427;28;20244;-58
2023/08/16 09:07:19;;;;;;;7.60;4.70;;;;;;;24.31;87.95;98944.44;4975207;28;20229;-60
2023/08/16 09:09:54;;;;;;;5.30;4.17;;;;;;;24.61;86.62;98951.47;4977774;28;20229;-54
2023/08/16 09:12:20;;;;;;;8.20;4.93;;;;;;;24.69;86.40;98952.16;4974342;28;20245;-57
2023/08/16 09:14:50;;;;;;;5.30;4.80;;;;;;;24.81;87.40;98954.84;4976764;28;20238;-58
2023/08/16 09:17:18;;;;;;;6.83;5.17;;;;;;;24.85;86.24;98953.31;4972560;28;20240;-58
2023/08/16 09:19:50;;;;;;;5.87;4.97;;;;;;;24.94;87.26;98951.88;4976320;28;20243;-57
2023/08/16 09:22:18;;;;;;;7.80;5.23;;;;;;;25.08;86.72;98954.25;4972664;28;20233;-56
2023/08/16 09:24:56;;;;;;;9.07;5.33;;;;;;;25.05;86.90;98951.00;4977414;28;21147;-58
2023/08/16 09:27:23;;;;;;;6.50;4.83;;;;;;;24.70;89.49;98943.09;4976962;28;20240;-57
2023/08/16 09:29:54;;;;;;;6.23;4.80;;;;;;;25.26;85.36;98955.94;4976427;28;20644;-57
2023/08/16 09:32:29;;;;;;;5.63;5.03;;;;;;;25.37;85.26;98948.91;4974467;28;20302;-58
2023/08/16 09:34:56;;;;;;;7.80;5.40;;;;;;;25.44;84.15;98947.72;4972549;28;20223;-58
2023/08/16 09:37:22;;;;;;;8.40;4.80;;;;;;;25.41;85.38;98950.88;4975825;28;20721;-58
2023/08/16 09:39:59;;;;;;;6.30;4.77;;;;;;;25.61;83.09;98945.09;4975885;28;20300;-58
2023/08/16 09:42:33;;;;;;;5.33;4.17;;;;;;;25.52;83.45;98933.19;4975507;28;20243;-58
2023/08/16 09:44:59;;;;;;;9.10;5.03;;;;;;;25.16;84.58;98933.34;4974859;28;20299;-60
2023/08/16 09:47:28;;;;;;;6.00;4.60;;;;;;;25.33;86.21;98936.03;4975268;28;20364;-57
2023/08/16 09:49:55;;;;;;;6.03;4.40;;;;;;;25.34;84.89;98931.50;4973944;28;20761;-57
2023/08/16 09:52:22;;;;;;;9.03;4.97;;;;;;;25.48;85.09;98932.03;4979691;28;20236;-56
2023/08/16 09:54:51;;;;;;;7.60;5.30;;;;;;;25.29;86.81;98926.09;4974621;28;20314;-57
2023/08/16 09:57:19;;;;;;;5.27;4.77;;;;;;;25.40;84.89;98925.22;4973304;28;20592;-58
2023/08/16 09:59:49;;;;;;;7.03;4.87;;;;;;;25.43;84.04;98918.56;4976367;28;20659;-58
2023/08/16 10:02:17;;;;;;;5.50;4.80;;;;;;;25.45;84.31;98919.16;4971541;28;20233;-57
2023/08/16 10:04:49;;;;;;;7.87;5.00;;;;;;;25.43;85.06;98915.88;4977594;28;20276;-58
2023/08/16 10:07:16;;;;;;;7.23;5.07;;;;;;;25.31;86.30;98907.94;4972091;28;20307;-57
2023/08/16 10:09:43;;;;;;;10.50;5.50;;;;;;;25.48;85.35;98908.00;4975504;28;20222;-58
2023/08/16 10:12:10;;;;;;;6.10;4.80;;;;;;;25.52;86.27;98902.94;4976867;28;20234;-58
2023/08/16 10:14:38;;;;;;;7.63;5.47;;;;;;;25.81;83.25;98908.22;4981095;28;20591;-57
2023/08/16 10:17:07;;;;;;;5.33;4.83;;;;;;;25.83;82.63;98898.91;4973666;28;20246;-57
2023/08/16 10:19:36;;;;;;;7.33;5.07;;;;;;;25.86;85.45;98893.09;4973463;28;20324;-58
2023/08/16 10:22:03;;;;;;;5.93;5.23;;;;;;;26.01;82.68;98894.31;4973424;28;20559;-57
2023/08/16 10:24:34;;;;;;;7.53;4.93;;;;;;;26.28;81.40;98897.16;4974256;28;20239;-55
2023/08/16 10:27:04;;;;;;;7.10;5.43;;;;;;;26.35;80.39;98897.78;4972968;28;20236;-57
2023/08/16 10:29:37;;;;;;;8.30;4.70;;;;;;;26.45;80.32;98901.66;4976869;28;20231;-57
2023/08/16 10:32:12;;;;;;;11.63;4.97;;;;;;;26.52;80.57;98894.22;4973549;28;20236;-58
2023/08/16 10:34:40;;;;;;;8.37;4.90;;;;;;;26.77;78.76;98885.69;4977777;28;20238;-58
2023/08/16 10:37:07;;;;;;;9.10;5.20;;;;;;;27.03;78.88;98895.88;4972848;28;20725;-57
2023/08/16 10:39:33;;;;;;;5.87;4.40;;;;;;;26.98;76.04;98890.47;4976142;28;20236;-57
2023/08/16 10:42:05;;;;;;;6.87;4.70;;;;;;;26.85;78.07;98883.66;4972881;28;20616;-57
2023/08/16 10:44:31;;;;;;;5.63;4.90;;;;;;;26.80;79.06;98882.50;4974908;28;20730;-58
2023/08/16 10:46:58;;;;;;;5.90;4.93;;;;;;;26.62;81.75;98880.16;4973923;28;20590;-57
2023/08/16 10:49:36;;;;;;;5.73;5.03;;;;;;;26.87;78.94;98879.66;4977217;28;20234;-58
2023/08/16 10:52:03;;;;;;;5.53;4.57;;;;;;;26.55;83.09;98872.31;4974025;28;20861;-59
2023/08/16 10:54:32;;;;;;;7.13;4.73;;;;;;;26.65;79.66;98872.41;4976785;28;20235;-58
2023/08/16 10:57:02;;;;;;;8.43;5.50;;;;;;;26.34;81.49;98874.75;4975350;28;20245;-57
2023/08/16 10:59:37;;;;;;;7.23;4.80;;;;;;;26.50;82.51;98869.59;4977056;28;20221;-59
2023/08/16 11:02:10;;;;;;;6.07;5.07;;;;;;;26.82;78.10;98863.53;4974853;28;20788;-59
2023/08/16 11:04:39;;;;;;;5.33;4.90;;;;;;;26.77;78.35;98866.13;4976271;28;20313;-58
2023/08/16 11:07:08;;;;;;;5.70;5.10;;;;;;;26.82;80.41;98866.19;4970082;28;20214;-58
2023/08/16 11:09:36;;;;;;;8.80;4.97;;;;;;;26.90;81.15;98864.97;4977133;28;20228;-56
2023/08/16 11:12:03;;;;;;;7.63;5.23;;;;;;;26.80;80.67;98863.75;4972656;28;20254;-59
2023/08/16 11:14:31;;;;;;;5.50;5.00;;;;;;;26.74;80.83;98851.38;4975840;28;20242;-58
2023/08/16 11:16:58;;;;;;;6.50;4.70;;;;;;;26.90;81.50;98852.34;4972536;28;20227;-59
2023/08/16 11:19:25;;;;;;;10.23;5.43;;;;;;;26.58;83.21;98854.94;4973447;28;20239;-59
2023/08/16 11:21:53;;;;;;;7.10;5.07;;;;;;;26.84;83.06;98855.25;4979101;28;20742;-58
2023/08/16 11:24:20;;;;;;;6.67;5.30;;;;;;;26.63;82.34;98844.28;4977468;28;20282;-58
2023/08/16 11:26:46;;;;;;;6.70;5.23;;;;;;;26.92;81.51;98852.91;4978124;28;20241;-56
2023/08/16 11:29:13;;;;;;;7.20;5.20;;;;;;;27.08;81.14;98853.06;4975418;28;20229;-56
2023/08/16 11:31:40;;;;;;;7.70;5.00;;;;;;;27.13;79.11;98852.28;4978510;28;20228;-59
2023/08/16 11:34:10;;;;;;;6.50;5.23;;;;;;;27.14;80.03;98849.38;4976446;28;20223;-59